sensor_id;sensor_type;location;lat;lon;timestamp;pressure;altitude;pressure_sealevel;temperature;humidity
52249;BME280;38541;48.130;8.378;2023-02-04T00:01:57;93985.53;;;3.00;86.57
52249;BME280;38541;48.130;8.378;2023-02-04T00:04:24;93970.56;;;3.02;87.34
52249;BME280;38541;48.130;8.378;2023-02-04T00:06:50;93977.13;;;2.98;86.93
52249;BME280;38541;48.130;8.378;2023-02-04T00:09:17;93981.13;;;3.00;87.25
52249;BME280;38541;48.130;8.378;2023-02-04T00:11:43;93979.34;;;3.01;87.43
52249;BME280;38541;48.130;8.378;2023-02-04T00:14:10;93995.16;;;3.06;87.81
52249;BME280;38541;48.130;8.378;2023-02-04T00:16:37;93985.59;;;3.07;88.18
52249;BME280;38541;48.130;8.378;2023-02-04T00:19:03;93987.00;;;3.09;87.72
52249;BME280;38541;48.130;8.378;2023-02-04T00:21:30;93981.19;;;3.07;87.99
52249;BME280;38541;48.130;8.378;2023-02-04T00:23:56;93973.03;;;3.10;88.17
52249;BME280;38541;48.130;8.378;2023-02-04T00:26:23;93975.63;;;3.10;87.90
52249;BME280;38541;48.130;8.378;2023-02-04T00:28:49;93979.59;;;3.06;88.07
52249;BME280;38541;48.130;8.378;2023-02-04T00:31:16;93974.91;;;3.17;88.03
52249;BME280;38541;48.130;8.378;2023-02-04T00:33:42;93972.31;;;3.17;87.88
52249;BME280;38541;48.130;8.378;2023-02-04T00:36:09;93971.31;;;3.18;87.91
52249;BME280;38541;48.130;8.378;2023-02-04T00:38:35;93970.50;;;3.17;87.73
52249;BME280;38541;48.130;8.378;2023-02-04T00:41:02;93967.13;;;3.17;88.14
52249;BME280;38541;48.130;8.378;2023-02-04T00:43:28;93967.72;;;3.19;87.89
52249;BME280;38541;48.130;8.378;2023-02-04T00:45:56;93962.00;;;3.23;87.96
52249;BME280;38541;48.130;8.378;2023-02-04T00:48:23;93964.59;;;3.23;87.88
52249;BME280;38541;48.130;8.378;2023-02-04T00:50:52;93952.38;;;3.24;88.02
52249;BME280;38541;48.130;8.378;2023-02-04T00:53:19;93952.38;;;3.24;88.30
52249;BME280;38541;48.130;8.378;2023-02-04T00:55:45;93949.63;;;3.25;88.56
52249;BME280;38541;48.130;8.378;2023-02-04T00:58:12;93947.56;;;3.21;88.96
52249;BME280;38541;48.130;8.378;2023-02-04T01:00:38;93949.41;;;3.27;88.73
52249;BME280;38541;48.130;8.378;2023-02-04T01:03:05;93953.25;;;3.31;89.07
52249;BME280;38541;48.130;8.378;2023-02-04T01:05:32;93961.03;;;3.31;88.78
52249;BME280;38541;48.130;8.378;2023-02-04T01:07:59;93960.06;;;3.32;88.93
52249;BME280;38541;48.130;8.378;2023-02-04T01:10:25;93959.69;;;3.35;88.94
52249;BME280;38541;48.130;8.378;2023-02-04T01:12:53;93957.47;;;3.32;89.12
52249;BME280;38541;48.130;8.378;2023-02-04T01:15:20;93967.47;;;3.35;89.58
52249;BME280;38541;48.130;8.378;2023-02-04T01:17:48;93985.47;;;3.37;89.78
52249;BME280;38541;48.130;8.378;2023-02-04T01:20:14;93984.28;;;3.39;89.51
52249;BME280;38541;48.130;8.378;2023-02-04T01:22:41;93985.53;;;3.43;89.82
52249;BME280;38541;48.130;8.378;2023-02-04T01:25:07;93987.69;;;3.40;89.75
52249;BME280;38541;48.130;8.378;2023-02-04T01:27:40;93997.91;;;3.41;90.00
52249;BME280;38541;48.130;8.378;2023-02-04T01:30:07;93993.56;;;3.49;89.94
52249;BME280;38541;48.130;8.378;2023-02-04T01:32:33;93997.22;;;3.54;89.73
52249;BME280;38541;48.130;8.378;2023-02-04T01:35:00;93984.41;;;3.53;89.40
52249;BME280;38541;48.130;8.378;2023-02-04T01:37:26;93981.22;;;3.51;89.37
52249;BME280;38541;48.130;8.378;2023-02-04T01:39:53;93989.19;;;3.49;89.45
52249;BME280;38541;48.130;8.378;2023-02-04T01:42:19;93978.78;;;3.49;89.20
52249;BME280;38541;48.130;8.378;2023-02-04T01:44:46;93981.22;;;3.51;89.01
52249;BME280;38541;48.130;8.378;2023-02-04T01:47:13;93977.97;;;3.49;89.38
52249;BME280;38541;48.130;8.378;2023-02-04T01:49:40;93983.16;;;3.49;89.41
52249;BME280;38541;48.130;8.378;2023-02-04T01:52:06;93975.63;;;3.54;89.19
52249;BME280;38541;48.130;8.378;2023-02-04T01:54:34;93977.84;;;3.57;88.81
52249;BME280;38541;48.130;8.378;2023-02-04T01:57:00;93975.63;;;3.54;88.96
52249;BME280;38541;48.130;8.378;2023-02-04T01:59:27;93980.00;;;3.53;88.80
52249;BME280;38541;48.130;8.378;2023-02-04T02:01:54;93987.63;;;3.55;88.69
52249;BME280;38541;48.130;8.378;2023-02-04T02:04:31;93983.06;;;3.57;88.54
52249;BME280;38541;48.130;8.378;2023-02-04T02:07:03;93980.44;;;3.57;89.07
52249;BME280;38541;48.130;8.378;2023-02-04T02:09:31;93966.84;;;3.55;88.95
52249;BME280;38541;48.130;8.378;2023-02-04T02:12:00;93962.03;;;3.52;88.79
52249;BME280;38541;48.130;8.378;2023-02-04T02:14:28;93957.84;;;3.57;88.85
52249;BME280;38541;48.130;8.378;2023-02-04T02:16:55;93961.81;;;3.53;88.57
52249;BME280;38541;48.130;8.378;2023-02-04T02:19:26;93967.41;;;3.50;88.72
52249;BME280;38541;48.130;8.378;2023-02-04T02:22:14;93952.63;;;3.51;88.88
52249;BME280;38541;48.130;8.378;2023-02-04T02:24:42;93960.16;;;3.46;88.79
52249;BME280;38541;48.130;8.378;2023-02-04T02:27:10;93952.63;;;3.51;89.07
52249;BME280;38541;48.130;8.378;2023-02-04T02:29:39;93952.97;;;3.48;88.71
52249;BME280;38541;48.130;8.378;2023-02-04T02:32:09;93955.22;;;3.51;88.85
52249;BME280;38541;48.130;8.378;2023-02-04T02:34:37;93952.88;;;3.56;88.74
52249;BME280;38541;48.130;8.378;2023-02-04T02:37:06;93953.59;;;3.50;88.91
52249;BME280;38541;48.130;8.378;2023-02-04T02:39:36;93952.25;;;3.54;88.73
52249;BME280;38541;48.130;8.378;2023-02-04T02:42:03;93956.84;;;3.52;89.10
52249;BME280;38541;48.130;8.378;2023-02-04T02:44:30;93964.03;;;3.56;89.25
52249;BME280;38541;48.130;8.378;2023-02-04T02:46:57;93955.91;;;3.66;89.31
52249;BME280;38541;48.130;8.378;2023-02-04T02:49:25;93963.34;;;3.69;88.97
52249;BME280;38541;48.130;8.378;2023-02-04T02:51:52;93954.56;;;3.70;88.90
52249;BME280;38541;48.130;8.378;2023-02-04T02:54:22;93944.78;;;3.73;89.11
52249;BME280;38541;48.130;8.378;2023-02-04T02:56:52;93945.41;;;3.75;88.92
52249;BME280;38541;48.130;8.378;2023-02-04T02:59:21;93964.97;;;3.70;89.31
52249;BME280;38541;48.130;8.378;2023-02-04T03:01:51;93965.59;;;3.73;89.65
52249;BME280;38541;48.130;8.378;2023-02-04T03:04:20;93964.31;;;3.68;89.67
52249;BME280;38541;48.130;8.378;2023-02-04T03:06:48;93957.03;;;3.79;89.86
52249;BME280;38541;48.130;8.378;2023-02-04T03:09:14;93970.63;;;3.81;89.72
52249;BME280;38541;48.130;8.378;2023-02-04T03:11:45;93963.81;;;3.80;89.92
52249;BME280;38541;48.130;8.378;2023-02-04T03:14:12;93967.81;;;3.76;90.20
52249;BME280;38541;48.130;8.378;2023-02-04T03:16:39;93970.03;;;3.79;90.50
52249;BME280;38541;48.130;8.378;2023-02-04T03:19:06;93966.44;;;3.80;90.35
52249;BME280;38541;48.130;8.378;2023-02-04T03:21:33;93967.03;;;3.82;90.64
52249;BME280;38541;48.130;8.378;2023-02-04T03:24:02;93980.25;;;3.87;90.44
52249;BME280;38541;48.130;8.378;2023-02-04T03:26:29;93972.66;;;3.85;90.29
52249;BME280;38541;48.130;8.378;2023-02-04T03:28:55;93982.84;;;3.87;90.26
52249;BME280;38541;48.130;8.378;2023-02-04T03:31:23;93990.09;;;3.92;90.34
52249;BME280;38541;48.130;8.378;2023-02-04T03:33:50;93994.31;;;3.93;90.34
52249;BME280;38541;48.130;8.378;2023-02-04T03:36:16;93992.91;;;3.90;89.95
52249;BME280;38541;48.130;8.378;2023-02-04T03:38:43;94006.53;;;3.92;90.03
52249;BME280;38541;48.130;8.378;2023-02-04T03:41:09;94008.53;;;3.97;90.05
52249;BME280;38541;48.130;8.378;2023-02-04T03:43:36;94007.59;;;4.05;89.97
52249;BME280;38541;48.130;8.378;2023-02-04T03:46:02;94006.38;;;4.00;89.64
52249;BME280;38541;48.130;8.378;2023-02-04T03:48:29;94008.56;;;4.04;89.76
52249;BME280;38541;48.130;8.378;2023-02-04T03:50:55;94010.78;;;4.07;89.20
52249;BME280;38541;48.130;8.378;2023-02-04T03:53:22;93999.16;;;4.03;89.19
52249;BME280;38541;48.130;8.378;2023-02-04T03:55:49;93994.78;;;4.03;88.79
52249;BME280;38541;48.130;8.378;2023-02-04T03:58:16;93995.19;;;4.07;88.95
52249;BME280;38541;48.130;8.378;2023-02-04T04:00:42;93992.41;;;4.08;89.21
52249;BME280;38541;48.130;8.378;2023-02-04T04:03:09;93998.44;;;4.09;88.97
52249;BME280;38541;48.130;8.378;2023-02-04T04:05:35;94000.78;;;4.04;88.71
52249;BME280;38541;48.130;8.378;2023-02-04T04:08:02;94009.00;;;4.07;89.03
52249;BME280;38541;48.130;8.378;2023-02-04T04:10:28;94011.63;;;4.07;88.78
52249;BME280;38541;48.130;8.378;2023-02-04T04:12:55;94002.03;;;4.08;88.71
52249;BME280;38541;48.130;8.378;2023-02-04T04:15:22;93998.44;;;4.09;89.03
52249;BME280;38541;48.130;8.378;2023-02-04T04:17:48;94002.38;;;4.05;88.82
52249;BME280;38541;48.130;8.378;2023-02-04T04:20:15;94000.41;;;4.07;88.47
52249;BME280;38541;48.130;8.378;2023-02-04T04:22:41;93996.56;;;4.03;88.73
52249;BME280;38541;48.130;8.378;2023-02-04T04:25:08;94003.00;;;4.07;89.03
52249;BME280;38541;48.130;8.378;2023-02-04T04:27:34;94005.59;;;4.07;89.12
52249;BME280;38541;48.130;8.378;2023-02-04T04:30:01;94001.16;;;4.00;88.98
52249;BME280;38541;48.130;8.378;2023-02-04T04:32:28;93998.34;;;3.95;88.95
52249;BME280;38541;48.130;8.378;2023-02-04T04:34:54;93998.94;;;3.97;89.09
52249;BME280;38541;48.130;8.378;2023-02-04T04:37:21;93997.94;;;3.98;89.64
52249;BME280;38541;48.130;8.378;2023-02-04T04:39:47;94003.16;;;3.98;89.55
52249;BME280;38541;48.130;8.378;2023-02-04T04:42:14;94013.72;;;3.97;89.11
52249;BME280;38541;48.130;8.378;2023-02-04T04:44:40;94017.59;;;4.01;89.41
52249;BME280;38541;48.130;8.378;2023-02-04T04:47:07;94014.00;;;4.02;89.36
52249;BME280;38541;48.130;8.378;2023-02-04T04:49:33;94008.78;;;4.02;89.24
52249;BME280;38541;48.130;8.378;2023-02-04T04:52:00;94013.66;;;4.12;89.34
52249;BME280;38541;48.130;8.378;2023-02-04T04:54:26;94010.84;;;4.13;88.73
52249;BME280;38541;48.130;8.378;2023-02-04T04:56:52;94015.66;;;4.17;88.46
52249;BME280;38541;48.130;8.378;2023-02-04T04:59:19;94010.06;;;4.13;88.42
52249;BME280;38541;48.130;8.378;2023-02-04T05:01:45;94012.66;;;4.13;88.39
52249;BME280;38541;48.130;8.378;2023-02-04T05:04:12;94000.22;;;4.08;88.56
52249;BME280;38541;48.130;8.378;2023-02-04T05:06:38;94011.63;;;4.07;88.89
52249;BME280;38541;48.130;8.378;2023-02-04T05:09:05;94006.41;;;4.07;88.68
52249;BME280;38541;48.130;8.378;2023-02-04T05:11:31;94005.97;;;4.04;88.58
52249;BME280;38541;48.130;8.378;2023-02-04T05:13:58;94011.00;;;4.05;88.79
52249;BME280;38541;48.130;8.378;2023-02-04T05:16:25;94015.22;;;4.06;88.85
52249;BME280;38541;48.130;8.378;2023-02-04T05:18:51;94021.97;;;4.00;89.27
52249;BME280;38541;48.130;8.378;2023-02-04T05:21:18;94018.38;;;4.02;89.26
52249;BME280;38541;48.130;8.378;2023-02-04T05:23:44;94018.81;;;4.05;88.86
52249;BME280;38541;48.130;8.378;2023-02-04T05:26:11;94020.59;;;4.05;88.69
52249;BME280;38541;48.130;8.378;2023-02-04T05:28:47;94019.19;;;4.02;88.53
52249;BME280;38541;48.130;8.378;2023-02-04T05:31:13;94024.38;;;4.02;88.81
52249;BME280;38541;48.130;8.378;2023-02-04T05:33:40;94028.53;;;3.96;88.67
52249;BME280;38541;48.130;8.378;2023-02-04T05:36:06;94027.16;;;4.00;89.01
52249;BME280;38541;48.130;8.378;2023-02-04T05:38:33;94022.56;;;4.03;88.86
52249;BME280;38541;48.130;8.378;2023-02-04T05:40:59;94024.78;;;3.99;88.78
52249;BME280;38541;48.130;8.378;2023-02-04T05:43:26;94029.38;;;4.04;88.70
52249;BME280;38541;48.130;8.378;2023-02-04T05:45:52;94029.22;;;4.05;88.66
52249;BME280;38541;48.130;8.378;2023-02-04T05:48:19;94037.44;;;4.09;88.64
52249;BME280;38541;48.130;8.378;2023-02-04T05:50:45;94037.44;;;4.09;88.47
52249;BME280;38541;48.130;8.378;2023-02-04T05:53:11;94043.81;;;4.06;88.53
52249;BME280;38541;48.130;8.378;2023-02-04T05:55:38;94039.22;;;4.08;88.35
52249;BME280;38541;48.130;8.378;2023-02-04T05:58:04;94040.00;;;4.02;88.66
52249;BME280;38541;48.130;8.378;2023-02-04T06:00:31;94042.00;;;4.07;88.53
52249;BME280;38541;48.130;8.378;2023-02-04T06:02:58;94048.63;;;4.09;88.47
52249;BME280;38541;48.130;8.378;2023-02-04T06:05:24;94046.84;;;4.10;88.49
52249;BME280;38541;48.130;8.378;2023-02-04T06:07:51;94050.06;;;4.12;88.46
52249;BME280;38541;48.130;8.378;2023-02-04T06:10:17;94044.66;;;4.13;88.27
52249;BME280;38541;48.130;8.378;2023-02-04T06:12:47;94052.28;;;4.15;88.22
52249;BME280;38541;48.130;8.378;2023-02-04T06:15:13;94049.69;;;4.15;88.14
52249;BME280;38541;48.130;8.378;2023-02-04T06:17:40;94051.72;;;4.20;87.88
52249;BME280;38541;48.130;8.378;2023-02-04T06:20:07;94058.09;;;4.17;88.22
52249;BME280;38541;48.130;8.378;2023-02-04T06:22:33;94066.28;;;4.14;88.48
52249;BME280;38541;48.130;8.378;2023-02-04T06:25:00;94063.28;;;4.17;88.44
52249;BME280;38541;48.130;8.378;2023-02-04T06:27:26;94073.69;;;4.17;88.31
52249;BME280;38541;48.130;8.378;2023-02-04T06:29:53;94067.50;;;4.18;88.27
52249;BME280;38541;48.130;8.378;2023-02-04T06:32:20;94071.72;;;4.19;88.28
52249;BME280;38541;48.130;8.378;2023-02-04T06:34:46;94081.31;;;4.19;88.52
52249;BME280;38541;48.130;8.378;2023-02-04T06:37:13;94086.94;;;4.22;88.22
52249;BME280;38541;48.130;8.378;2023-02-04T06:39:41;94081.13;;;4.20;88.14
52249;BME280;38541;48.130;8.378;2023-02-04T06:42:08;94090.91;;;4.18;88.20
52249;BME280;38541;48.130;8.378;2023-02-04T06:44:34;94093.13;;;4.21;88.05
52249;BME280;38541;48.130;8.378;2023-02-04T06:47:01;94093.50;;;4.18;87.96
52249;BME280;38541;48.130;8.378;2023-02-04T06:49:27;94098.88;;;4.17;88.25
52249;BME280;38541;48.130;8.378;2023-02-04T06:51:54;94103.91;;;4.18;87.97
52249;BME280;38541;48.130;8.378;2023-02-04T06:54:20;94110.72;;;4.19;87.85
52249;BME280;38541;48.130;8.378;2023-02-04T06:56:47;94098.72;;;4.18;88.00
52249;BME280;38541;48.130;8.378;2023-02-04T06:59:13;94107.69;;;4.16;87.99
52249;BME280;38541;48.130;8.378;2023-02-04T07:01:40;94103.06;;;4.11;87.88
52249;BME280;38541;48.130;8.378;2023-02-04T07:04:06;94102.47;;;4.09;88.12
52249;BME280;38541;48.130;8.378;2023-02-04T07:06:33;94103.63;;;4.06;87.82
52249;BME280;38541;48.130;8.378;2023-02-04T07:08:59;94101.63;;;4.08;88.32
52249;BME280;38541;48.130;8.378;2023-02-04T07:11:26;94104.69;;;4.12;88.33
52249;BME280;38541;48.130;8.378;2023-02-04T07:13:52;94105.22;;;4.07;87.72
52249;BME280;38541;48.130;8.378;2023-02-04T07:16:18;94110.88;;;4.11;88.07
52249;BME280;38541;48.130;8.378;2023-02-04T07:18:45;94117.84;;;4.10;87.86
52249;BME280;38541;48.130;8.378;2023-02-04T07:21:11;94125.09;;;4.15;87.81
52249;BME280;38541;48.130;8.378;2023-02-04T07:23:38;94126.88;;;4.14;87.73
52249;BME280;38541;48.130;8.378;2023-02-04T07:26:04;94129.31;;;4.16;87.64
52249;BME280;38541;48.130;8.378;2023-02-04T07:28:31;94133.34;;;4.19;87.45
52249;BME280;38541;48.130;8.378;2023-02-04T07:30:57;94138.34;;;4.20;87.19
52249;BME280;38541;48.130;8.378;2023-02-04T07:33:24;94139.94;;;4.21;87.29
52249;BME280;38541;48.130;8.378;2023-02-04T07:35:50;94147.03;;;4.27;87.35
52249;BME280;38541;48.130;8.378;2023-02-04T07:38:17;94149.44;;;4.29;86.59
52249;BME280;38541;48.130;8.378;2023-02-04T07:40:43;94142.69;;;4.35;87.15
52249;BME280;38541;48.130;8.378;2023-02-04T07:43:10;94146.28;;;4.34;86.39
52249;BME280;38541;48.130;8.378;2023-02-04T07:45:37;94159.06;;;4.35;86.75
52249;BME280;38541;48.130;8.378;2023-02-04T07:48:04;94170.47;;;4.34;86.67
52249;BME280;38541;48.130;8.378;2023-02-04T07:50:30;94163.03;;;4.31;86.75
52249;BME280;38541;48.130;8.378;2023-02-04T07:52:57;94171.47;;;4.33;86.85
52249;BME280;38541;48.130;8.378;2023-02-04T07:55:24;94168.63;;;4.28;86.31
52249;BME280;38541;48.130;8.378;2023-02-04T07:57:50;94169.00;;;4.25;85.92
52249;BME280;38541;48.130;8.378;2023-02-04T08:00:17;94163.38;;;4.21;85.24
52249;BME280;38541;48.130;8.378;2023-02-04T08:02:43;94162.13;;;4.17;84.89
52249;BME280;38541;48.130;8.378;2023-02-04T08:05:10;94168.25;;;4.09;84.21
52249;BME280;38541;48.130;8.378;2023-02-04T08:07:36;94170.41;;;4.06;83.89
52249;BME280;38541;48.130;8.378;2023-02-04T08:10:04;94177.22;;;4.07;84.01
52249;BME280;38541;48.130;8.378;2023-02-04T08:12:31;94175.63;;;4.06;83.83
52249;BME280;38541;48.130;8.378;2023-02-04T08:14:57;94178.22;;;4.06;83.50
52249;BME280;38541;48.130;8.378;2023-02-04T08:17:24;94176.75;;;3.96;83.38
52249;BME280;38541;48.130;8.378;2023-02-04T08:19:50;94179.34;;;3.96;82.73
52249;BME280;38541;48.130;8.378;2023-02-04T08:22:17;94184.03;;;3.86;83.08
52249;BME280;38541;48.130;8.378;2023-02-04T08:24:43;94181.44;;;3.86;83.22
52249;BME280;38541;48.130;8.378;2023-02-04T08:27:10;94189.44;;;3.69;82.63
52249;BME280;38541;48.130;8.378;2023-02-04T08:29:37;94189.66;;;3.68;82.87
52249;BME280;38541;48.130;8.378;2023-02-04T08:32:03;94189.72;;;3.75;82.74
52249;BME280;38541;48.130;8.378;2023-02-04T08:34:30;94198.50;;;3.74;82.74
52249;BME280;38541;48.130;8.378;2023-02-04T08:36:56;94195.63;;;3.68;82.47
52249;BME280;38541;48.130;8.378;2023-02-04T08:39:23;94198.06;;;3.70;82.26
52249;BME280;38541;48.130;8.378;2023-02-04T08:41:49;94195.59;;;3.62;82.05
52249;BME280;38541;48.130;8.378;2023-02-04T08:44:17;94200.84;;;3.68;82.14
52249;BME280;38541;48.130;8.378;2023-02-04T08:46:44;94198.06;;;3.70;81.82
52249;BME280;38541;48.130;8.378;2023-02-04T08:49:10;94201.72;;;3.76;81.34
52249;BME280;38541;48.130;8.378;2023-02-04T08:51:37;94200.13;;;3.75;81.18
52249;BME280;38541;48.130;8.378;2023-02-04T08:54:03;94212.13;;;3.76;80.84
52249;BME280;38541;48.130;8.378;2023-02-04T08:56:29;94211.38;;;3.82;81.08
52249;BME280;38541;48.130;8.378;2023-02-04T08:58:56;94214.19;;;3.80;80.38
52249;BME280;38541;48.130;8.378;2023-02-04T09:01:22;94215.97;;;3.80;80.54
52249;BME280;38541;48.130;8.378;2023-02-04T09:03:49;94220.19;;;3.81;80.38
52249;BME280;38541;48.130;8.378;2023-02-04T09:06:16;94222.53;;;3.76;80.33
52249;BME280;38541;48.130;8.378;2023-02-04T09:08:42;94234.53;;;3.77;80.25
52249;BME280;38541;48.130;8.378;2023-02-04T09:11:08;94236.50;;;3.75;79.73
52249;BME280;38541;48.130;8.378;2023-02-04T09:13:37;94232.91;;;3.76;80.20
52249;BME280;38541;48.130;8.378;2023-02-04T09:16:05;94233.47;;;3.71;79.78
52249;BME280;38541;48.130;8.378;2023-02-04T09:18:31;94235.59;;;3.67;80.10
52249;BME280;38541;48.130;8.378;2023-02-04T09:20:58;94241.91;;;3.58;79.93
52249;BME280;38541;48.130;8.378;2023-02-04T09:23:24;94232.00;;;3.68;80.47
52249;BME280;38541;48.130;8.378;2023-02-04T09:25:51;94235.53;;;3.76;79.99
52249;BME280;38541;48.130;8.378;2023-02-04T09:28:17;94244.69;;;3.71;79.89
52249;BME280;38541;48.130;8.378;2023-02-04T09:30:45;94235.69;;;3.74;80.54
52249;BME280;38541;48.130;8.378;2023-02-04T09:33:14;94240.53;;;3.77;80.32
52249;BME280;38541;48.130;8.378;2023-02-04T09:35:42;94243.78;;;3.79;80.38
52249;BME280;38541;48.130;8.378;2023-02-04T09:38:09;94241.34;;;3.78;80.57
52249;BME280;38541;48.130;8.378;2023-02-04T09:40:39;94241.50;;;3.91;80.87
52249;BME280;38541;48.130;8.378;2023-02-04T09:43:11;94249.00;;;4.01;80.55
52249;BME280;38541;48.130;8.378;2023-02-04T09:45:39;94254.34;;;4.14;80.58
52249;BME280;38541;48.130;8.378;2023-02-04T09:48:06;94249.47;;;4.26;80.08
52249;BME280;38541;48.130;8.378;2023-02-04T09:50:35;94244.94;;;4.35;79.61
52249;BME280;38541;48.130;8.378;2023-02-04T09:53:04;94241.78;;;4.40;79.29
52249;BME280;38541;48.130;8.378;2023-02-04T09:55:34;94241.78;;;4.40;78.92
52249;BME280;38541;48.130;8.378;2023-02-04T09:58:01;94248.72;;;4.33;78.93
52249;BME280;38541;48.130;8.378;2023-02-04T10:00:29;94253.50;;;4.51;78.80
52249;BME280;38541;48.130;8.378;2023-02-04T10:02:59;94258.00;;;4.64;78.04
52249;BME280;38541;48.130;8.378;2023-02-04T10:05:29;94251.97;;;4.85;78.19
52249;BME280;38541;48.130;8.378;2023-02-04T10:07:56;94254.50;;;5.00;76.72
52249;BME280;38541;48.130;8.378;2023-02-04T10:10:25;94251.66;;;4.95;76.09
52249;BME280;38541;48.130;8.378;2023-02-04T10:12:56;94264.41;;;5.11;76.29
52249;BME280;38541;48.130;8.378;2023-02-04T10:15:23;94259.19;;;5.11;75.62
52249;BME280;38541;48.130;8.378;2023-02-04T10:17:54;94258.19;;;5.12;76.32
52249;BME280;38541;48.130;8.378;2023-02-04T10:20:24;94256.50;;;5.33;76.53
52249;BME280;38541;48.130;8.378;2023-02-04T10:22:53;94253.47;;;5.23;75.08
52249;BME280;38541;48.130;8.378;2023-02-04T10:25:22;94252.59;;;5.16;75.41
52249;BME280;38541;48.130;8.378;2023-02-04T10:27:53;94251.97;;;5.13;75.46
52249;BME280;38541;48.130;8.378;2023-02-04T10:30:26;94248.09;;;5.31;76.06
52249;BME280;38541;48.130;8.378;2023-02-04T10:32:53;94251.13;;;5.35;75.37
52249;BME280;38541;48.130;8.378;2023-02-04T10:35:20;94257.38;;;5.40;75.39
52249;BME280;38541;48.130;8.378;2023-02-04T10:38:01;94255.13;;;5.37;74.95
52249;BME280;38541;48.130;8.378;2023-02-04T10:40:31;94256.28;;;5.28;73.94
52249;BME280;38541;48.130;8.378;2023-02-04T10:42:58;94251.16;;;5.06;72.85
52249;BME280;38541;48.130;8.378;2023-02-04T10:45:28;94241.63;;;4.92;73.91
52249;BME280;38541;48.130;8.378;2023-02-04T10:47:56;94250.53;;;5.04;74.47
52249;BME280;38541;48.130;8.378;2023-02-04T10:50:25;94246.16;;;5.11;74.10
52249;BME280;38541;48.130;8.378;2023-02-04T10:52:54;94248.94;;;5.10;74.21
52249;BME280;38541;48.130;8.378;2023-02-04T10:55:43;94248.47;;;5.28;74.32
52249;BME280;38541;48.130;8.378;2023-02-04T10:58:13;94252.16;;;5.40;73.81
52249;BME280;38541;48.130;8.378;2023-02-04T11:00:41;94239.88;;;5.34;73.15
52249;BME280;38541;48.130;8.378;2023-02-04T11:05:46;94237.50;;;5.39;74.10
52249;BME280;38541;48.130;8.378;2023-02-04T11:08:21;94248.56;;;5.41;73.13
52249;BME280;38541;48.130;8.378;2023-02-04T11:10:50;94253.78;;;5.48;73.76
52249;BME280;38541;48.130;8.378;2023-02-04T11:13:25;94250.22;;;5.56;75.03
52249;BME280;38541;48.130;8.378;2023-02-04T11:18:59;94247.19;;;5.46;73.43
52249;BME280;38541;48.130;8.378;2023-02-04T11:34:08;94253.53;;;5.36;73.19
52249;BME280;38541;48.130;8.378;2023-02-04T11:39:31;94242.50;;;5.34;74.73
52249;BME280;38541;48.130;8.378;2023-02-04T11:41:59;94246.41;;;5.52;75.06
52249;BME280;38541;48.130;8.378;2023-02-04T11:44:26;94249.22;;;5.57;74.66
52249;BME280;38541;48.130;8.378;2023-02-04T11:46:54;94243.56;;;5.47;73.62
52249;BME280;38541;48.130;8.378;2023-02-04T11:49:23;94252.38;;;5.46;73.79
52249;BME280;38541;48.130;8.378;2023-02-04T11:51:50;94247.97;;;5.46;73.66
52249;BME280;38541;48.130;8.378;2023-02-04T11:54:28;94249.88;;;5.66;74.05
52249;BME280;38541;48.130;8.378;2023-02-04T11:56:58;94250.81;;;5.51;73.44
52249;BME280;38541;48.130;8.378;2023-02-04T11:59:24;94255.41;;;5.49;73.74
52249;BME280;38541;48.130;8.378;2023-02-04T12:02:02;94256.50;;;5.33;73.47
52249;BME280;38541;48.130;8.378;2023-02-04T12:04:29;94256.28;;;5.28;73.65
52249;BME280;38541;48.130;8.378;2023-02-04T12:06:58;94251.72;;;5.72;73.90
52249;BME280;38541;48.130;8.378;2023-02-04T12:09:26;94254.13;;;6.22;74.13
52249;BME280;38541;48.130;8.378;2023-02-04T12:11:57;94252.81;;;6.80;72.43
52249;BME280;38541;48.130;8.378;2023-02-04T12:14:33;94241.13;;;7.23;67.29
52249;BME280;38541;48.130;8.378;2023-02-04T12:17:00;94242.50;;;7.46;69.63
52249;BME280;38541;48.130;8.378;2023-02-04T12:19:27;94250.75;;;7.36;68.88
52249;BME280;38541;48.130;8.378;2023-02-04T12:21:54;94251.19;;;7.06;69.26
52249;BME280;38541;48.130;8.378;2023-02-04T12:24:21;94261.25;;;6.82;70.93
52249;BME280;38541;48.130;8.378;2023-02-04T12:26:47;94265.44;;;6.70;71.13
52249;BME280;38541;48.130;8.378;2023-02-04T12:29:13;94259.34;;;6.22;70.39
52249;BME280;38541;48.130;8.378;2023-02-04T12:31:40;94259.34;;;6.22;71.44
52249;BME280;38541;48.130;8.378;2023-02-04T12:34:06;94255.00;;;5.94;71.30
52249;BME280;38541;48.130;8.378;2023-02-04T12:36:33;94265.06;;;5.97;71.05
52249;BME280;38541;48.130;8.378;2023-02-04T12:38:59;94266.19;;;6.23;71.02
52249;BME280;38541;48.130;8.378;2023-02-04T12:41:26;94264.44;;;5.89;72.05
52249;BME280;38541;48.130;8.378;2023-02-04T12:43:53;94262.38;;;6.26;71.20
52249;BME280;38541;48.130;8.378;2023-02-04T12:46:20;94258.47;;;6.02;70.71
52249;BME280;38541;48.130;8.378;2023-02-04T12:48:47;94253.69;;;5.63;70.08
52249;BME280;38541;48.130;8.378;2023-02-04T12:51:14;94262.06;;;5.59;71.96
52249;BME280;38541;48.130;8.378;2023-02-04T12:53:40;94260.94;;;5.75;72.45
52249;BME280;38541;48.130;8.378;2023-02-04T12:56:07;94254.56;;;5.84;71.55
52249;BME280;38541;48.130;8.378;2023-02-04T12:58:33;94263.19;;;5.84;71.78
52249;BME280;38541;48.130;8.378;2023-02-04T13:01:00;94261.72;;;6.10;70.96
52249;BME280;38541;48.130;8.378;2023-02-04T13:03:29;94265.59;;;6.41;68.94
52249;BME280;38541;48.130;8.378;2023-02-04T13:05:56;94262.03;;;6.63;68.98
52249;BME280;38541;48.130;8.378;2023-02-04T13:08:22;94264.88;;;6.95;68.08
52249;BME280;38541;48.130;8.378;2023-02-04T13:10:49;94273.69;;;7.41;66.05
52249;BME280;38541;48.130;8.378;2023-02-04T13:13:18;94269.56;;;7.79;65.43
52249;BME280;38541;48.130;8.378;2023-02-04T13:15:45;94267.97;;;7.78;62.65
52249;BME280;38541;48.130;8.378;2023-02-04T13:18:12;94264.75;;;7.76;63.48
52249;BME280;38541;48.130;8.378;2023-02-04T13:20:38;94273.88;;;7.53;64.08
52249;BME280;38541;48.130;8.378;2023-02-04T13:23:05;94267.28;;;7.30;64.26
52249;BME280;38541;48.130;8.378;2023-02-04T13:25:31;94272.88;;;6.60;66.84
52249;BME280;38541;48.130;8.378;2023-02-04T13:27:58;94265.38;;;6.30;68.76
52249;BME280;38541;48.130;8.378;2023-02-04T13:30:25;94274.47;;;6.47;69.71
52249;BME280;38541;48.130;8.378;2023-02-04T13:32:52;94276.06;;;6.48;68.55